Flight Track Log - Related Links

Times and Time Zones

All times are in EDT time to prevent confusion due to time zone crossing. See the EJA941 flight status page for this flight to view local times or setup timezone preferences in your user account.

Time Position Orientation Groundspeed Altitude Reporting Facility
EDT Latitude Longitude Course Direction KTS MPH feet Rate Location/Type
Mon 02:56:25 PM 23.2022 -81.4961 350° North 473 544 42,800  Level Miami Center
Mon 02:57:25 PM 23.3206 -81.5186 350° North 451 519 43,000 100 Climbing Miami Center
Mon 02:58:25 PM 23.4408 -81.5478 347° North 443 510 43,000  Level Miami Center
Mon 02:59:25 PM 23.5611 -81.5750 348° North 437 503 43,000  Level Miami Center
Mon 03:00:25 PM 23.6814 -81.6019 348° North 437 503 43,000  Level Miami Center
Mon 03:01:25 PM 23.8017 -81.6269 349° North 437 503 43,000  Level Miami Center
Mon 03:02:25 PM 23.9364 -81.6569 348° North 442 509 43,000  Level Miami Center
Mon 03:03:25 PM 24.0589 -81.6844 348° North 442 509 43,000  Level Miami Center
Mon 03:04:25 PM 24.1747 -81.7139 347° North 447 514 43,000  Level Miami Center
Mon 03:05:25 PM 24.2947 -81.7481 345° North 447 514 43,000  Level Miami Center
Mon 03:06:25 PM 24.3919 -81.7747 346° North 422 486 43,000  Level Miami Center
Mon 03:07:25 PM 24.5203 -81.8142 344° North 417 480 43,000  Level Miami Center
Mon 03:08:25 PM 24.6486 -81.8467 347° North 438 504 43,000  Level Miami Center
Mon 03:09:25 PM 24.7625 -81.8719 349° North 435 501 43,000  Level Miami Center
Mon 03:10:25 PM 24.8806 -81.9017 347° North 428 493 43,000  Level Miami Center
Mon 03:11:25 PM 24.9922 -81.9339 345° North 428 493 43,000  Level Miami Center
Mon 03:12:25 PM 25.1122 -81.9617 348° North 428 493 43,000  Level Miami Center
Mon 03:13:25 PM 25.2261 -81.9942 346° North 428 493 43,000  Level Miami Center
Mon 03:14:25 PM 25.3419 -82.0242 347° North 428 493 43,000  Level Miami Center
Mon 03:15:25 PM 25.4536 -82.0542 346° North 428 493 43,000  Level Miami Center
Mon 03:16:25 PM 25.5694 -82.0847 347° North 428 493 43,000  Level Miami Center
Mon 03:18:25 PM 25.8011 -82.1478 346° North 428 493 43,000  Level Miami Center
Mon 03:19:25 PM 25.9147 -82.1781 347° North 428 493 43,000  Level Miami Center
Mon 03:20:25 PM 26.0306 -82.2108 346° North 428 493 43,000  Level Miami Center
Mon 03:21:25 PM 26.1461 -82.2417 347° North 428 493 43,000  Level Miami Center
Mon 03:22:25 PM 26.2556 -82.2767 344° North 422 486 43,000  Level Miami Center
Mon 03:23:25 PM 26.3694 -82.3050 347° North 414 476 43,000  Level Miami Center
Mon 03:24:25 PM 26.4808 -82.3356 346° North 414 476 43,000  Level Miami Center
Mon 03:25:25 PM 26.5967 -82.3689 346° North 414 476 43,000  Level Miami Center
Mon 03:26:25 PM 26.7103 -82.3975 347° North 414 476 43,000  Level Miami Center
Mon 03:27:25 PM 26.8239 -82.4308 345° North 414 476 43,000  Level Miami Center
Mon 03:28:25 PM 26.9372 -82.4619 346° North 414 476 43,000  Level Miami Center
Mon 03:29:25 PM 27.0508 -82.4931 346° North 414 476 43,000  Level Miami Center
Mon 03:30:25 PM 27.1625 -82.5242 346° North 414 476 43,000  Level Miami Center
Mon 03:31:25 PM 27.2761 -82.5531 347° North 414 476 43,000  Level Miami Center
Mon 03:32:25 PM 27.3894 -82.5842 346° North 414 476 43,000  Level Miami Center
Mon 03:33:25 PM 27.4906 -82.6128 346° North 414 476 43,000  Level Miami Center
Mon 03:35:53 PM 27.7825 -82.6978 346° North 409 471 43,000  Level Jacksonville Center
Mon 03:36:53 PM 27.8975 -82.7281 347° North 414 476 43,000  Level Jacksonville Center
Mon 03:37:53 PM 28.0081 -82.7586 346° North 414 476 43,000  Level Jacksonville Center
Mon 03:38:53 PM 28.1228 -82.7914 346° North 414 476 43,000  Level Jacksonville Center
Mon 03:39:53 PM 28.2356 -82.8242 346° North 414 476 43,000 150 Level Jacksonville Center
Mon 03:40:53 PM 28.3503 -82.8547 347° North 414 476 43,300 400 Climbing Jacksonville Center
Mon 03:41:53 PM 28.4608 -82.8878 345° North 414 476 43,800 500 Climbing Jacksonville Center
Mon 03:42:53 PM 28.5736 -82.9186 346° North 414 476 44,300 500 Climbing Jacksonville Center
Mon 03:43:53 PM 28.6819 -82.9494 346° North 409 471 44,800 350 Climbing Jacksonville Center
Mon 03:44:53 PM 28.7758 -82.9756 346° North 390 449 45,000 100 Climbing Jacksonville Center
Mon 03:45:53 PM 28.8867 -83.0064 346° North 396 456 45,000  Level Jacksonville Center
Mon 03:46:53 PM 28.9992 -83.0397 345° North 406 467 45,000  Level Jacksonville Center
Mon 03:47:53 PM 29.1119 -83.0731 346° North 411 473 45,000  Level Jacksonville Center
Mon 03:48:53 PM 29.2244 -83.1067 345° North 411 473 45,000  Level Jacksonville Center
Mon 03:49:53 PM 29.3372 -83.1403 345° North 411 473 45,000  Level Jacksonville Center
Mon 03:50:53 PM 29.4519 -83.1717 347° North 411 473 45,000  Level Jacksonville Center
Mon 03:51:53 PM 29.5667 -83.2053 346° North 422 486 45,000  Level Jacksonville Center
Mon 03:52:53 PM 29.6814 -83.2417 345° North 417 480 45,000  Level Jacksonville Center
Mon 03:53:53 PM 29.8086 -83.2828 344° North 417 480 45,000  Level Jacksonville Center
Mon 03:54:53 PM 29.9233 -83.3119 348° North 417 480 45,000  Level Jacksonville Center
Mon 03:55:53 PM 30.0381 -83.3436 347° North 417 480 45,000  Level Jacksonville Center
Mon 03:56:53 PM 30.1528 -83.3753 347° North 417 480 45,000  Level Jacksonville Center
Mon 03:57:53 PM 30.2675 -83.4097 345° North 417 480 45,000  Level Jacksonville Center
Mon 03:58:53 PM 30.3844 -83.4417 347° North 417 480 45,000  Level Jacksonville Center
Mon 03:59:53 PM 30.5011 -83.4761 346° North 417 480 45,000  Level Jacksonville Center
Mon 04:00:53 PM 30.6158 -83.5106 346° North 417 480 45,000  Level Jacksonville Center
Mon 04:01:53 PM 30.7325 -83.5450 346° North 417 480 45,000  Level Jacksonville Center
Mon 04:02:53 PM 30.8408 -83.5797 345° North 412 474 45,000  Level Jacksonville Center
Mon 04:05:31 PM 31.1344 -83.6678 346° North 438 504 45,000  Level Atlanta Center
Mon 04:06:31 PM 31.2472 -83.7014 346° North 438 504 45,000  Level Atlanta Center
Mon 04:07:31 PM 31.3644 -83.7372 345° North 427 491 45,000  Level Atlanta Center
Mon 04:08:31 PM 31.4750 -83.7736 344° North 422 486 45,000  Level Atlanta Center
Mon 04:09:31 PM 31.6044 -83.8122 346° North 422 486 45,000  Level Atlanta Center
Mon 04:10:31 PM 31.7131 -83.8339 350° North 422 486 45,000  Level Atlanta Center
Mon 04:11:31 PM 31.8531 -83.8581 352° North 449 517 45,000  Level Atlanta Center
Mon 04:12:31 PM 31.9719 -83.8797 351° North 449 517 45,000  Level Atlanta Center
Mon 04:13:31 PM 32.0889 -83.9017 351° North 437 503 45,000  Level Atlanta Center
Mon 04:14:31 PM 32.2058 -83.9233 351° North 427 491 45,000  Level Atlanta Center
Mon 04:15:31 PM 32.3269 -83.9478 350° North 427 491 45,000  Level Atlanta Center
Mon 04:16:31 PM 32.4458 -83.9700 351° North 427 491 45,000  Level Atlanta Center
Mon 04:17:31 PM 32.5669 -83.9944 350° North 427 491 45,000  Level Atlanta Center
Mon 04:18:31 PM 32.6756 -84.0042 356° North 427 491 45,000  Level Atlanta Center
Mon 04:19:31 PM 32.7986 -84.0117 357° North 427 491 45,000  Level Atlanta Center
Mon 04:20:31 PM 32.9197 -84.0192 357° North 432 497 45,000  Level Atlanta Center
Mon 04:21:31 PM 33.0450 -84.0314 355° North 438 504 45,000  Level Atlanta Center
Mon 04:22:31 PM 33.1658 -84.0414 356° North 438 504 45,000  Level Atlanta Center
Mon 04:23:31 PM 33.2892 -84.0489 357° North 445 512 45,000  Level Atlanta Center
Mon 04:24:31 PM 33.4122 -84.0561 357° North 440 506 45,000  Level Atlanta Center
Mon 04:25:31 PM 33.5356 -84.0636 357° North 440 506 45,000  Level Atlanta Center
Mon 04:26:31 PM 33.6564 -84.0714 357° North 440 506 45,000  Level Atlanta Center
Mon 04:27:31 PM 33.7797 -84.0789 357° North 440 506 45,000  Level Atlanta Center
Mon 04:28:31 PM 33.9028 -84.0864 357° North 440 506 45,000  Level Atlanta Center
Mon 04:29:31 PM 34.0258 -84.0939 357° North 440 506 45,000  Level Atlanta Center
Mon 04:30:31 PM 34.1469 -84.1042 356° North 440 506 45,000  Level Atlanta Center
Mon 04:31:31 PM 34.2700 -84.1142 356° North 440 506 45,000  Level Atlanta Center
Mon 04:32:31 PM 34.4036 -84.1219 357° North 440 506 45,000  Level Atlanta Center
Mon 04:33:31 PM 34.5267 -84.1322 356° North 440 506 45,000  Level Atlanta Center
Mon 04:34:31 PM 34.6478 -84.1422 356° North 435 501 45,000  Level Atlanta Center
Mon 04:35:31 PM 34.7667 -84.1550 355° North 430 495 45,000  Level Atlanta Center
Mon 04:36:31 PM 34.8900 -84.1653 356° North 430 495 45,000  Level Atlanta Center
Mon 04:37:31 PM 35.0131 -84.1756 356° North 430 495 45,000  Level Atlanta Center
Mon 04:38:31 PM 35.1361 -84.1836 357° North 435 501 45,000  Level Atlanta Center
Mon 04:39:31 PM 35.2592 -84.1914 357° North 440 506 45,000  Level Atlanta Center
Mon 04:40:31 PM 35.3822 -84.1992 357° North 440 506 45,000  Level Atlanta Center
Mon 04:41:31 PM 35.5075 -84.2097 356° North 440 506 45,000  Level Atlanta Center
Mon 04:42:31 PM 35.6283 -84.2203 356° North 440 506 45,000  Level Atlanta Center
Mon 04:43:31 PM 35.7514 -84.2306 356° North 440 506 45,000  Level Atlanta Center
Mon 04:44:31 PM 35.8725 -84.2361 358° North 440 506 45,000  Level Atlanta Center
Mon 04:46:28 PM 36.1172 -84.2564 356° North 446 513 45,000  Level Indianapolis Center
Mon 04:47:30 PM 36.2419 -84.2669 356° North 450 518 45,000  Level Indianapolis Center
Mon 04:48:32 PM 36.3661 -84.2758 357° North 449 517 45,000  Level Indianapolis Center
Mon 04:49:34 PM 36.4906 -84.2853 357° North 450 518 45,000  Level Indianapolis Center
Mon 04:50:36 PM 36.6158 -84.2961 356° North 452 520 45,000  Level Indianapolis Center
Mon 04:51:38 PM 36.7622 -84.3133 355° North 450 518 45,000  Level Indianapolis Center
Mon 04:52:40 PM 36.8806 -84.3542 345° North 439 505 45,000  Level Indianapolis Center
Mon 04:53:42 PM 36.9986 -84.3956 344° North 440 506 45,000  Level Indianapolis Center
Mon 04:54:44 PM 37.1161 -84.4364 345° North 437 503 45,000  Level Indianapolis Center
Mon 04:55:46 PM 37.2333 -84.4783 344° North 437 503 45,000  Level Indianapolis Center
Mon 04:56:48 PM 37.3511 -84.5197 344° North 439 505 45,000  Level Indianapolis Center
Mon 04:57:50 PM 37.4878 -84.5675 344° North 436 502 45,000  Level Indianapolis Center
Mon 04:58:52 PM 37.6044 -84.6106 344° North 435 501 45,000  Level Indianapolis Center
Mon 04:59:54 PM 37.7225 -84.6519 345° North 437 503 45,000  Level Indianapolis Center
Mon 05:00:56 PM 37.8392 -84.6936 344° North 437 503 45,000 -48 Level Indianapolis Center
Mon 05:01:58 PM 37.9561 -84.7364 344° North 434 499 44,900 -581 Descending Indianapolis Center
Mon 05:03:00 PM 38.0919 -84.7853 344° North 434 499 43,800 -1,008 Descending Indianapolis Center
Mon 05:04:03 PM 38.2069 -84.8242 345° North 429 494 42,800 -960 Descending Indianapolis Center
Mon 05:05:05 PM 38.3194 -84.8647 344° North 420 483 41,800 -1,452 Descending Indianapolis Center
Mon 05:06:07 PM 38.4319 -84.9056 344° North 419 482 39,800 -1,839 Descending Indianapolis Center
Mon 05:07:09 PM 38.5472 -84.9494 343° North 428 493 38,000 -871 Descending Indianapolis Center
Mon 05:08:11 PM 38.6800 -84.9961 345° North 442 509 38,000 -339 Level Indianapolis Center
Mon 05:09:13 PM 38.7972 -85.0397 344° North 447 514 37,300 -823 Descending Indianapolis Center
Mon 05:10:15 PM 38.9114 -85.0833 343° North 435 501 36,300 -1,161 Descending Indianapolis Center
Mon 05:11:17 PM 39.0283 -85.1264 344° North 436 502 34,900 -1,403 Descending Indianapolis Center
Mon 05:12:19 PM 39.1525 -85.1719 344° North 461 531 33,400 -1,597 Descending Indianapolis Center
Mon 05:13:21 PM 39.3083 -85.2297 344° North 483 556 31,600 -1,694 Descending Indianapolis Center
Mon 05:14:23 PM 39.4442 -85.2806 344° North 503 579 29,900 -1,645 Descending Indianapolis Center
Mon 05:15:25 PM 39.5786 -85.3308 344° North 507 583 28,200 -919 Descending Indianapolis Center
Mon 05:16:27 PM 39.7119 -85.3806 344° North 504 580 28,000 -97 Descending Indianapolis Center
Mon 05:17:29 PM 39.8419 -85.4306 344° North 496 571 28,000  Level Indianapolis Center
Mon 05:18:31 PM 39.9992 -85.4903 344° North 495 570 28,000  Level Indianapolis Center
Mon 05:19:33 PM 40.1308 -85.5400 344° North 496 571 28,000 -968 Level Indianapolis Center
Mon 05:20:35 PM 40.2614 -85.5925 343° North 495 570 26,000 -968 Descending Indianapolis Center
Mon 05:21:37 PM 40.3617 -85.7028 320° Northwest 479 551 26,000 -145 Level Indianapolis Center
Mon 05:22:39 PM 40.4503 -85.8319 312° West 479 551 25,700 -732 Descending Indianapolis Center
Mon 05:23:40 PM 40.5564 -85.9861 312° West 479 551 24,500 -1,024 Descending Chicago Center
Mon 05:24:42 PM 40.6433 -86.1147 312° West 477 549 23,600 -726 Descending Chicago Center
Mon 05:25:44 PM 40.7244 -86.2350 312° West 472 543 23,000 -339 Descending Chicago Center
Mon 05:26:46 PM 40.8108 -86.3622 312° West 465 535 22,900 -677 Descending Chicago Center
Mon 05:27:48 PM 40.9147 -86.5178 311° West 469 540 21,600 -1,161 Descending Chicago Center
Mon 05:28:50 PM 41.0025 -86.6467 312° West 470 541 20,500 -1,065 Descending Chicago Center
Mon 05:29:52 PM 41.0894 -86.7761 312° West 465 535 19,400 -1,065 Descending Chicago Center
Mon 05:30:54 PM 41.1717 -86.8997 311° West 459 528 18,300 -919 Descending Chicago Center
Mon 05:31:56 PM 41.2533 -87.0236 311° West 453 521 17,500 -1,392 Descending Chicago Center
Mon 05:32:59 PM 41.3322 -87.1422 312° West 440 506 15,400 -2,208 Descending Chicago Center
Mon 05:34:01 PM 41.4272 -87.2692 315° West 414 476 12,900 -2,129 Descending Chicago Center
Mon 05:35:03 PM 41.5069 -87.3628 319° Northwest 396 456 11,000 -919 Descending Chicago Center
Mon 05:36:05 PM 41.5833 -87.4469 321° Northwest 372 428 11,000 -145 Level Chicago Center
Mon 05:37:07 PM 41.6589 -87.5300 321° Northwest 360 414 10,700 -1,065 Descending Chicago Center
Mon 05:38:09 PM 41.7331 -87.6153 319° Northwest 301 346 8,800 -1,694 Descending Chicago Center
Mon 05:39:11 PM 41.7961 -87.6867 320° Northwest 300 345 7,200 -871 Descending Chicago Center
Mon 05:40:13 PM 41.8250 -87.7547 300° West 237 273 7,000 -97 Descending Chicago Center
Mon 05:41:15 PM 41.8269 -87.8297 272° West 207 238 7,000 -677 Level Chicago Center
Mon 05:42:17 PM 41.8283 -87.9044 271° West 204 235 5,600 -1,452 Descending Chicago Center
Mon 05:43:19 PM 41.7928 -87.9728 235° Southwest 195 224 4,000 -768 Descending Chicago Center
Mon 05:44:22 PM 41.7867 -88.0300 262° West 202 232 4,000  Level Chicago Center
Mon 05:45:24 PM 41.8292 -88.0619 331° Northwest 204 235 4,000 -387 Level Chicago Center
Mon 05:46:26 PM 41.8583 -88.0114 52° Northeast 182 209 3,200 -823 Descending Chicago Center
Mon 05:47:28 PM 41.8933 -87.9703 41° Northeast 173 199 2,300 -885 Descending Chicago Center
Mon 05:48:28 PM 41.9333 -87.9333 34° Northeast 138 159 1,400 -900 Descending Chicago TRACON
Mon 05:51:00 PM 41.9667 -87.9000 15° North  Level FlightAware Approximate

Login

Don't have an account? Register now (free) for customized features, flight alerts, and more!